Time;durP1;ratioP1;P1;durP2;ratioP2;P2;SDS_P1;SDS_P2;PMS_P1;PMS_P2;Temp;Humidity;BMP_temperature;BMP_pressure;BME280_temperature;BME280_humidity;BME280_pressure;Samples;Min_cycle;Max_cycle;Signal;HPM_P1;HPM_P2
2021/09/04 00:01:07;;;;;;;11.00;6.80;;;15.80;99.90;;;;;;6702402;88;20536;-75
2021/09/04 00:11:08;;;;;;;15.15;7.37;;;15.50;99.90;;;;;;6703326;88;20216;-75
2021/09/04 00:21:08;;;;;;;12.77;6.70;;;15.40;99.90;;;;;;6702217;88;20297;-75
2021/09/04 00:31:09;;;;;;;13.02;6.80;;;15.50;99.90;;;;;;6702561;88;20529;-76
2021/09/04 00:41:10;;;;;;;11.05;6.78;;;15.20;99.90;;;;;;6703767;77;20212;-75
2021/09/04 00:51:10;;;;;;;14.87;6.85;;;15.10;99.90;;;;;;6691155;88;20260;-75
2021/09/04 01:01:11;;;;;;;14.35;7.25;;;14.90;99.90;;;;;;6690005;88;20367;-75
2021/09/04 01:11:13;;;;;;;9.03;6.40;;;14.90;99.90;;;;;;6684854;88;20179;-75
2021/09/04 01:21:14;;;;;;;9.95;6.55;;;15.10;99.90;;;;;;6695953;88;20255;-75
2021/09/04 01:31:15;;;;;;;13.10;7.32;;;14.80;99.90;;;;;;6683387;88;20238;-75
2021/09/04 01:41:15;;;;;;;11.73;6.60;;;14.60;99.90;;;;;;6689522;88;20218;-75
2021/09/04 01:51:16;;;;;;;10.35;6.90;;;14.60;99.90;;;;;;6718817;88;20253;-75
2021/09/04 02:01:16;;;;;;;12.60;7.00;;;14.60;99.90;;;;;;6712920;88;20690;-75
2021/09/04 02:11:17;;;;;;;10.80;6.72;;;14.40;99.90;;;;;;6712438;88;20319;-75
2021/09/04 02:21:17;;;;;;;11.43;7.00;;;14.10;99.90;;;;;;6723483;88;20199;-75
2021/09/04 02:31:23;;;;;;;10.15;6.65;;;14.10;99.90;;;;;;6729481;88;20200;-75
2021/09/04 02:41:23;;;;;;;12.07;6.77;;;13.90;99.90;;;;;;6729850;88;20220;-75
2021/09/04 02:51:24;;;;;;;11.30;6.97;;;14.20;99.90;;;;;;6718423;88;20581;-76
2021/09/04 03:01:24;;;;;;;10.48;6.60;;;14.30;99.90;;;;;;6712626;88;20232;-75
2021/09/04 03:11:25;;;;;;;11.95;7.40;;;14.00;99.90;;;;;;6712701;88;20180;-75
2021/09/04 03:21:25;;;;;;;10.52;6.68;;;14.00;99.90;;;;;;6723330;88;20202;-75
2021/09/04 03:31:26;;;;;;;15.45;6.70;;;13.90;99.90;;;;;;6728811;88;20188;-75
2021/09/04 03:41:26;;;;;;;14.10;7.20;;;13.70;99.90;;;;;;6728852;88;20193;-75
2021/09/04 03:51:27;;;;;;;13.73;7.60;;;13.40;99.90;;;;;;6717090;88;20223;-75
2021/09/04 04:01:28;;;;;;;11.32;7.12;;;13.60;99.90;;;;;;6711369;88;20198;-75
2021/09/04 04:11:28;;;;;;;10.63;6.85;;;13.50;99.90;;;;;;6711205;88;20289;-75
2021/09/04 04:21:29;;;;;;;10.40;6.97;;;13.50;99.90;;;;;;6722928;88;20181;-76
2021/09/04 04:31:30;;;;;;;11.20;7.00;;;13.60;99.90;;;;;;6729225;88;20185;-75
2021/09/04 04:41:30;;;;;;;11.65;7.00;;;13.60;99.90;;;;;;6729501;88;20188;-76
2021/09/04 04:51:31;;;;;;;10.43;6.28;;;13.50;99.90;;;;;;6719916;88;20716;-75
2021/09/04 05:01:31;;;;;;;10.65;6.82;;;13.40;99.90;;;;;;6714332;88;20218;-75
2021/09/04 05:11:32;;;;;;;11.80;7.40;;;13.50;99.90;;;;;;6714354;88;20192;-75
2021/09/04 05:21:33;;;;;;;14.48;7.45;;;13.30;99.90;;;;;;6725175;88;20206;-75
2021/09/04 05:31:33;;;;;;;11.68;7.00;;;13.40;99.90;;;;;;6729426;88;20323;-75
2021/09/04 05:41:34;;;;;;;16.87;7.65;;;13.40;99.90;;;;;;6721357;88;20266;-75
2021/09/04 05:51:34;;;;;;;11.38;7.50;;;13.30;99.90;;;;;;6722982;88;20691;-75
2021/09/04 06:01:35;;;;;;;13.10;7.97;;;13.70;99.90;;;;;;6725641;88;20947;-75
2021/09/04 06:11:36;;;;;;;11.40;7.55;;;13.90;99.90;;;;;;6716034;88;20207;-75
2021/09/04 06:21:36;;;;;;;11.88;7.55;;;14.30;99.90;;;;;;6718743;88;20256;-75
2021/09/04 06:31:37;;;;;;;11.35;7.60;;;14.80;99.90;;;;;;6733112;88;20224;-74
2021/09/04 06:41:37;;;;;;;15.05;7.90;;;15.20;99.90;;;;;;6732052;88;20723;-75
2021/09/04 06:51:38;;;;;;;13.25;8.07;;;15.70;99.90;;;;;;6722574;88;20625;-76
2021/09/04 07:01:38;;;;;;;12.30;7.65;;;16.40;99.90;;;;;;6729831;88;20968;-75
2021/09/04 07:11:39;;;;;;;13.32;7.95;;;16.70;99.90;;;;;;6733625;88;20378;-74
2021/09/04 07:21:40;;;;;;;11.23;7.20;;;17.00;99.90;;;;;;6733888;88;20192;-74
2021/09/04 07:31:40;;;;;;;10.13;7.12;;;17.80;99.90;;;;;;6734345;88;20983;-76
2021/09/04 07:41:41;;;;;;;11.87;7.50;;;18.50;99.90;;;;;;6734301;88;20204;-75
2021/09/04 07:51:41;;;;;;;12.52;7.45;;;19.40;99.90;;;;;;6721643;88;20535;-74
2021/09/04 08:01:42;;;;;;;9.43;6.90;;;20.00;99.90;;;;;;6730023;88;20193;-75
2021/09/04 08:11:42;;;;;;;11.30;7.15;;;20.90;99.90;;;;;;6733536;88;20222;-76
2021/09/04 08:21:43;;;;;;;11.32;7.25;;;21.30;99.90;;;;;;6736032;88;20631;-76
2021/09/04 08:31:43;;;;;;;10.25;6.85;;;22.40;99.90;;;;;;6731384;88;20255;-76
2021/09/04 08:41:44;;;;;;;11.82;7.40;;;23.30;99.90;;;;;;6729519;88;20206;-76
2021/09/04 08:51:45;;;;;;;12.07;7.10;;;23.90;99.90;;;;;;6725110;88;20209;-76
2021/09/04 09:01:46;;;;;;;10.52;7.12;;;24.30;99.90;;;;;;6727542;88;20603;-76
2021/09/04 09:11:52;;;;;;;9.27;6.10;;;25.30;99.90;;;;;;6717096;88;20196;-75
2021/09/04 09:21:56;;;;;;;9.57;5.85;;;25.80;99.90;;;;;;6727401;88;20209;-75
2021/09/04 09:32:07;;;;;;;7.75;5.82;;;26.90;99.90;;;;;;6731376;88;20177;-75
2021/09/04 09:42:11;;;;;;;8.75;5.93;;;27.90;99.40;;;;;;6731293;88;20260;-75
2021/09/04 09:52:14;;;;;;;9.38;5.90;;;28.10;98.30;;;;;;6725295;88;20201;-75
2021/09/04 10:02:16;;;;;;;8.40;5.40;;;28.90;97.40;;;;;;6731885;88;20317;-74
2021/09/04 10:12:17;;;;;;;9.00;6.20;;;29.60;95.80;;;;;;6731866;88;20233;-75
2021/09/04 10:22:18;;;;;;;9.53;5.90;;;30.40;93.40;;;;;;6731584;88;20368;-75
2021/09/04 10:32:19;;;;;;;11.20;6.05;;;30.20;92.30;;;;;;6731688;88;20218;-75
2021/09/04 10:42:41;;;;;;;8.18;5.85;;;31.40;92.20;;;;;;6732134;88;20648;-74
2021/09/04 10:52:52;;;;;;;9.18;5.70;;;31.00;90.90;;;;;;6725822;88;20227;-74
2021/09/04 11:03:03;;;;;;;9.27;5.80;;;31.40;90.80;;;;;;6732316;88;20185;-75
2021/09/04 11:13:13;;;;;;;;;;;31.90;89.20;;;;;;6731770;88;20230;-75
2021/09/04 11:23:27;;;;;;;8.25;5.85;;;33.30;87.50;;;;;;6731539;88;20057;-75
2021/09/04 11:33:28;;;;;;;8.13;5.68;;;33.00;85.80;;;;;;6730098;88;20200;-75
2021/09/04 11:43:28;;;;;;;9.65;5.75;;;32.50;85.20;;;;;;6730832;88;20220;-75
2021/09/04 11:53:29;;;;;;;8.80;5.90;;;33.50;82.20;;;;;;6726139;88;20180;-75
2021/09/04 12:03:29;;;;;;;7.75;5.35;;;33.20;82.30;;;;;;6734674;88;20209;-75
2021/09/04 12:13:30;;;;;;;6.80;5.10;;;33.90;78.20;;;;;;6732934;88;20185;-74
2021/09/04 12:23:31;;;;;;;6.37;4.40;;;33.90;78.50;;;;;;6733349;88;20213;-75
2021/09/04 12:33:33;;;;;;;6.05;4.25;;;33.50;75.00;;;;;;6733530;88;20192;-75
2021/09/04 12:44:07;;;;;;;7.37;4.72;;;33.90;77.70;;;;;;6733022;88;20197;-76
2021/09/04 12:54:07;;;;;;;7.07;5.03;;;34.10;75.10;;;;;;6721497;88;20200;-76
2021/09/04 13:04:11;;;;;;;;;;;34.80;73.40;;;;;;6734570;88;20237;-76
2021/09/04 13:14:11;;;;;;;5.95;4.70;;;35.30;73.50;;;;;;6734222;88;20066;-76
2021/09/04 13:24:12;;;;;;;;;;;35.30;72.90;;;;;;6733339;88;20603;-76
2021/09/04 13:34:17;;;;;;;7.78;5.43;;;35.10;71.40;;;;;;6732789;88;20581;-76
2021/09/04 13:44:17;;;;;;;6.10;4.60;;;34.30;71.50;;;;;;6732322;88;20691;-76
2021/09/04 13:54:18;;;;;;;6.10;5.00;;;33.80;71.30;;;;;;6725861;88;20319;-76
2021/09/04 14:04:18;;;;;;;8.15;4.90;;;33.30;72.10;;;;;;6732538;88;20316;-76
2021/09/04 14:14:19;;;;;;;7.35;5.20;;;33.50;71.20;;;;;;6731937;88;20204;-76
2021/09/04 14:24:19;;;;;;;7.57;5.33;;;33.20;72.20;;;;;;6731997;88;20551;-76
2021/09/04 14:34:20;;;;;;;6.97;4.80;;;32.90;72.10;;;;;;6731410;88;20192;-76
2021/09/04 14:44:21;;;;;;;6.47;5.03;;;33.40;72.60;;;;;;6730040;88;20620;-76
2021/09/04 14:54:21;;;;;;;7.15;4.97;;;33.70;69.50;;;;;;6724774;88;20314;-76
2021/09/04 15:04:25;;;;;;;6.35;4.70;;;33.10;70.30;;;;;;6720178;88;20207;-76
2021/09/04 15:14:26;;;;;;;6.28;4.37;;;32.50;71.40;;;;;;6715410;88;20189;-76
2021/09/04 15:24:26;;;;;;;7.00;4.70;;;32.70;70.80;;;;;;6731768;88;20605;-76
2021/09/04 15:34:27;;;;;;;7.10;4.90;;;32.70;70.60;;;;;;6730907;88;20229;-75
2021/09/04 15:44:28;;;;;;;8.75;5.97;;;31.80;72.80;;;;;;6730192;88;20659;-75
2021/09/04 15:54:28;;;;;;;9.93;6.50;;;30.80;78.00;;;;;;6729972;88;20184;-75
2021/09/04 16:04:29;;;;;;;11.60;6.65;;;29.90;80.40;;;;;;6729581;88;20200;-75
2021/09/04 16:14:29;;;;;;;10.82;7.40;;;29.20;82.40;;;;;;6729306;88;20197;-74
2021/09/04 16:24:30;;;;;;;10.63;6.50;;;28.80;84.60;;;;;;6729232;88;20262;-76
2021/09/04 16:34:33;;;;;;;9.25;6.15;;;28.50;85.70;;;;;;6729378;88;20188;-75
2021/09/04 16:44:33;;;;;;;10.75;6.43;;;27.90;87.80;;;;;;6731552;88;20193;-75
2021/09/04 16:54:34;;;;;;;12.40;6.10;;;27.30;89.00;;;;;;6731863;88;20212;-74
2021/09/04 17:04:34;;;;;;;9.40;6.45;;;26.70;90.30;;;;;;6735497;88;20373;-76
2021/09/04 17:14:35;;;;;;;9.93;6.20;;;26.40;90.70;;;;;;6731762;88;20271;-75
2021/09/04 17:24:36;;;;;;;9.48;6.35;;;25.80;91.80;;;;;;6731048;88;20345;-74
2021/09/04 17:34:36;;;;;;;11.50;6.50;;;25.30;93.40;;;;;;6731334;88;20210;-74
2021/09/04 17:44:37;;;;;;;9.20;6.22;;;25.00;94.70;;;;;;6730943;88;20333;-74
2021/09/04 17:54:37;;;;;;;9.65;6.10;;;24.60;96.90;;;;;;6723863;88;20189;-74
2021/09/04 18:04:38;;;;;;;8.70;5.97;;;24.30;97.60;;;;;;6732979;88;20192;-73
2021/09/04 18:14:38;;;;;;;10.77;6.50;;;23.90;98.60;;;;;;6731549;88;20314;-74
2021/09/04 18:24:39;;;;;;;10.40;6.95;;;23.60;99.80;;;;;;6730722;88;20208;-74
2021/09/04 18:34:39;;;;;;;12.18;7.30;;;23.10;99.90;;;;;;6730742;88;20172;-74
2021/09/04 18:44:40;;;;;;;9.85;6.47;;;22.70;99.90;;;;;;6730264;88;20274;-74
2021/09/04 18:54:41;;;;;;;12.02;6.45;;;22.60;99.90;;;;;;6723492;88;20630;-74
2021/09/04 19:04:42;;;;;;;11.77;7.75;;;22.10;99.90;;;;;;6729698;88;20193;-74
2021/09/04 19:14:43;;;;;;;13.40;8.13;;;21.80;99.90;;;;;;6730655;88;20344;-74
2021/09/04 19:24:43;;;;;;;12.43;8.07;;;21.60;99.90;;;;;;6730095;88;20206;-74
2021/09/04 19:34:44;;;;;;;14.82;9.10;;;21.30;99.90;;;;;;6732533;88;20250;-74
2021/09/04 19:44:44;;;;;;;15.70;9.93;;;21.10;99.90;;;;;;6732120;88;20214;-76
2021/09/04 19:54:45;;;;;;;13.30;9.05;;;20.80;99.90;;;;;;6724532;88;20235;-74
2021/09/04 20:04:45;;;;;;;15.75;9.13;;;20.50;99.90;;;;;;6729302;88;20368;-74
2021/09/04 20:14:46;;;;;;;18.67;10.07;;;20.20;99.90;;;;;;6729909;88;20230;-73
2021/09/04 20:24:46;;;;;;;14.50;9.82;;;19.90;99.90;;;;;;6731594;88;20208;-74
2021/09/04 20:34:47;;;;;;;19.10;11.43;;;19.60;99.90;;;;;;6731430;88;20180;-74
2021/09/04 20:44:47;;;;;;;18.52;11.25;;;19.40;99.90;;;;;;6731206;88;20587;-74
2021/09/04 20:54:48;;;;;;;19.15;11.30;;;19.20;99.90;;;;;;6725131;88;20629;-74
2021/09/04 21:04:49;;;;;;;18.12;11.27;;;19.00;99.90;;;;;;6731219;88;20270;-74
2021/09/04 21:14:49;;;;;;;18.52;11.57;;;18.90;99.90;;;;;;6730907;88;20723;-74
2021/09/04 21:24:50;;;;;;;18.93;12.13;;;18.70;99.90;;;;;;6733124;88;20192;-73
2021/09/04 21:34:51;;;;;;;20.35;12.05;;;18.60;99.90;;;;;;6731308;88;20632;-74
2021/09/04 21:44:51;;;;;;;19.60;12.27;;;18.30;99.90;;;;;;6730847;88;20258;-74
2021/09/04 21:54:52;;;;;;;21.37;12.88;;;18.10;99.90;;;;;;6724686;88;20185;-74
2021/09/04 22:04:52;;;;;;;23.35;12.48;;;18.10;99.90;;;;;;6732683;88;20200;-74
2021/09/04 22:14:53;;;;;;;23.00;13.02;;;18.00;99.90;;;;;;6730271;88;20189;-74
2021/09/04 22:24:53;;;;;;;23.77;13.60;;;18.10;99.90;;;;;;6730251;88;21027;-74
2021/09/04 22:34:55;;;;;;;18.40;12.02;;;17.80;99.90;;;;;;6729687;88;20373;-74
2021/09/04 22:44:56;;;;;;;21.98;13.62;;;17.80;99.90;;;;;;6729473;88;20308;-74
2021/09/04 22:54:56;;;;;;;24.90;14.10;;;17.50;99.90;;;;;;6724655;88;20258;-74
2021/09/04 23:04:57;;;;;;;26.12;14.23;;;17.30;99.90;;;;;;6731302;88;20211;-74
2021/09/04 23:14:58;;;;;;;27.55;14.80;;;17.30;99.90;;;;;;6733018;88;20344;-74
2021/09/04 23:24:58;;;;;;;24.25;14.48;;;17.20;99.90;;;;;;6730021;88;20197;-74
2021/09/04 23:34:59;;;;;;;29.35;16.52;;;17.00;99.90;;;;;;6729337;88;20246;-73
2021/09/04 23:44:59;;;;;;;32.30;17.62;;;16.80;99.90;;;;;;6728602;88;20266;-74
2021/09/04 23:55:00;;;;;;;32.10;18.05;;;16.60;99.90;;;;;;6726031;88;20333;-74
